Time;durP1;ratioP1;P1;durP2;ratioP2;P2;SDS_P1;SDS_P2;PMS_P1;PMS_P2;Temp;Humidity;BMP_temperature;BMP_pressure;BME280_temperature;BME280_humidity;BME280_pressure;Samples;Min_cycle;Max_cycle;Signal;HPM_P1;HPM_P2
2021/11/28 00:00:44;;;;;;;16.73;12.80;;;3.30;99.90;;;;;;5067539;28;20239;-70
2021/11/28 00:03:11;;;;;;;14.87;12.37;;;3.20;99.90;;;;;;5067484;28;20564;-70
2021/11/28 00:05:39;;;;;;;14.00;12.10;;;3.20;99.90;;;;;;5067672;28;20214;-70
2021/11/28 00:13:46;;;;;;;15.13;12.47;;;3.20;99.90;;;;;;5065686;28;20223;-70
2021/11/28 00:16:16;;;;;;;15.80;12.07;;;3.20;99.90;;;;;;5067940;28;20550;-70
2021/11/28 00:18:43;;;;;;;17.57;12.67;;;3.10;99.90;;;;;;5067836;28;20735;-70
2021/11/28 00:21:11;;;;;;;15.40;11.80;;;3.10;99.90;;;;;;5067779;28;20235;-70
2021/11/28 00:23:37;;;;;;;13.23;11.57;;;3.10;99.90;;;;;;5067977;28;21103;-70
2021/11/28 00:26:07;;;;;;;14.13;11.80;;;3.10;99.90;;;;;;5067934;28;20291;-70
2021/11/28 00:28:35;;;;;;;14.50;11.43;;;3.20;99.90;;;;;;5067985;28;20344;-70
2021/11/28 00:31:04;;;;;;;16.00;12.30;;;3.20;99.90;;;;;;5067544;28;20740;-70
2021/11/28 00:33:33;;;;;;;16.30;12.47;;;3.20;99.90;;;;;;5067663;28;20966;-70
2021/11/28 00:36:00;;;;;;;14.63;11.97;;;3.10;99.90;;;;;;5067786;28;20199;-70
2021/11/28 00:38:27;;;;;;;15.27;12.27;;;3.20;99.90;;;;;;5069912;28;20296;-70
2021/11/28 00:40:56;;;;;;;14.13;11.70;;;3.20;99.90;;;;;;5071607;28;20661;-70
2021/11/28 00:43:23;;;;;;;14.27;12.07;;;3.20;99.90;;;;;;5071862;28;20214;-70
2021/11/28 00:45:50;;;;;;;17.33;12.00;;;3.20;99.90;;;;;;5071443;28;20326;-70
2021/11/28 00:48:17;;;;;;;15.20;11.80;;;3.20;99.90;;;;;;5071362;28;20655;-70
2021/11/28 00:50:46;;;;;;;14.23;11.87;;;3.20;99.90;;;;;;5071532;28;20235;-70
2021/11/28 00:53:14;;;;;;;15.37;11.43;;;3.20;99.90;;;;;;5071350;28;20294;-70
2021/11/28 00:55:42;;;;;;;16.73;12.37;;;3.30;99.90;;;;;;5071405;28;20243;-70
2021/11/28 00:58:09;;;;;;;15.80;12.10;;;3.30;99.90;;;;;;5071384;28;20208;-70
2021/11/28 01:00:38;;;;;;;15.40;12.27;;;3.30;99.90;;;;;;5071137;28;20231;-70
2021/11/28 01:03:05;;;;;;;15.63;11.40;;;3.30;99.90;;;;;;5071303;28;20207;-70
2021/11/28 01:05:32;;;;;;;14.03;11.63;;;3.30;99.90;;;;;;5071373;28;20234;-70
2021/11/28 01:08:00;;;;;;;13.60;11.10;;;3.30;99.90;;;;;;5070964;28;20294;-70
2021/11/28 01:10:27;;;;;;;15.67;11.67;;;3.30;99.90;;;;;;5070856;28;20317;-70
2021/11/28 01:12:55;;;;;;;12.60;10.60;;;3.40;99.90;;;;;;5071036;28;20238;-70
2021/11/28 01:15:22;;;;;;;15.30;13.03;;;3.30;99.90;;;;;;5071177;28;20256;-70
2021/11/28 01:17:49;;;;;;;13.27;11.30;;;3.20;99.90;;;;;;5071262;28;20248;-70
2021/11/28 01:20:16;;;;;;;13.83;11.27;;;3.30;99.90;;;;;;5070788;28;20254;-70
2021/11/28 01:22:43;;;;;;;13.07;11.47;;;3.30;99.90;;;;;;5070984;28;20204;-70
2021/11/28 01:25:13;;;;;;;13.53;11.60;;;3.30;99.90;;;;;;5070527;28;20670;-70
2021/11/28 01:27:41;;;;;;;12.40;10.97;;;3.20;99.90;;;;;;5071154;28;20286;-70
2021/11/28 01:30:09;;;;;;;13.17;10.77;;;3.10;99.90;;;;;;5070731;28;20641;-70
2021/11/28 01:32:38;;;;;;;12.93;10.70;;;3.20;99.90;;;;;;5070716;28;20262;-70
2021/11/28 01:35:07;;;;;;;12.67;10.50;;;3.20;99.90;;;;;;5070550;28;20246;-70
2021/11/28 01:37:35;;;;;;;12.10;10.80;;;3.20;99.90;;;;;;5070721;28;20298;-70
2021/11/28 01:40:04;;;;;;;15.33;10.57;;;3.20;99.90;;;;;;5070701;28;20211;-70
2021/11/28 01:42:39;;;;;;;12.90;10.33;;;3.20;99.90;;;;;;5070765;28;20210;-70
2021/11/28 01:45:09;;;;;;;13.33;10.60;;;3.20;99.90;;;;;;5070592;28;20652;-70
2021/11/28 01:47:36;;;;;;;12.20;10.40;;;3.20;99.90;;;;;;5070214;28;20603;-70
2021/11/28 01:50:04;;;;;;;12.03;10.13;;;3.30;99.90;;;;;;5069549;28;20318;-70
2021/11/28 01:52:34;;;;;;;12.50;10.80;;;3.30;99.90;;;;;;5070590;28;20257;-70
2021/11/28 01:55:04;;;;;;;11.07;9.90;;;3.20;99.90;;;;;;5070457;28;20576;-70
2021/11/28 01:57:32;;;;;;;13.27;10.40;;;3.30;99.90;;;;;;5070323;28;20595;-70
2021/11/28 02:00:00;;;;;;;12.43;10.17;;;3.30;99.90;;;;;;5070096;28;20274;-71
2021/11/28 02:02:27;;;;;;;11.87;9.93;;;3.30;99.90;;;;;;5070090;28;20269;-70
2021/11/28 02:04:55;;;;;;;10.47;9.07;;;3.30;99.90;;;;;;5069994;28;20234;-70
2021/11/28 02:07:22;;;;;;;10.90;9.77;;;3.30;99.90;;;;;;5069701;28;20727;-70
2021/11/28 02:09:49;;;;;;;11.67;9.50;;;3.30;99.90;;;;;;5070248;28;20292;-70
2021/11/28 02:12:16;;;;;;;11.00;9.80;;;3.30;99.90;;;;;;5069857;28;20312;-70
2021/11/28 02:14:43;;;;;;;12.40;10.30;;;3.30;99.90;;;;;;5059425;28;20244;-70
2021/11/28 02:17:12;;;;;;;11.17;9.83;;;3.30;99.90;;;;;;5050056;28;20211;-70
2021/11/28 02:19:39;;;;;;;10.30;9.17;;;3.30;99.90;;;;;;5049846;28;20218;-70
2021/11/28 02:22:08;;;;;;;10.10;9.10;;;3.20;99.90;;;;;;5049658;28;20307;-70
2021/11/28 02:24:35;;;;;;;11.97;9.70;;;3.30;99.90;;;;;;5049949;28;20236;-70
2021/11/28 02:27:02;;;;;;;10.03;9.00;;;3.30;99.90;;;;;;5049497;28;20303;-70
2021/11/28 02:29:28;;;;;;;10.80;9.57;;;3.30;99.90;;;;;;5049626;28;20232;-70
2021/11/28 02:31:55;;;;;;;10.30;9.27;;;3.30;99.90;;;;;;5049435;28;20911;-70
2021/11/28 02:34:23;;;;;;;11.43;9.27;;;3.30;99.90;;;;;;5049782;28;20243;-70
2021/11/28 02:36:52;;;;;;;9.97;8.90;;;3.20;99.90;;;;;;5049637;28;20212;-70
2021/11/28 02:39:21;;;;;;;10.93;9.77;;;3.30;99.90;;;;;;5049476;28;20575;-70
2021/11/28 02:41:48;;;;;;;10.50;8.77;;;3.30;99.90;;;;;;5049538;28;20298;-70
2021/11/28 02:44:16;;;;;;;9.93;8.80;;;3.30;99.90;;;;;;5049417;28;20287;-70
2021/11/28 02:46:44;;;;;;;11.10;9.90;;;3.30;99.90;;;;;;5049008;28;20299;-70
2021/11/28 02:49:12;;;;;;;9.93;8.93;;;3.30;99.90;;;;;;5048593;28;20733;-70
2021/11/28 02:51:40;;;;;;;9.80;8.90;;;3.30;99.90;;;;;;5049373;28;20289;-70
2021/11/28 02:54:08;;;;;;;9.43;8.47;;;3.20;99.90;;;;;;5049169;28;20200;-70
2021/11/28 02:56:36;;;;;;;10.03;8.33;;;3.30;99.90;;;;;;5049161;28;20270;-70
2021/11/28 02:59:04;;;;;;;10.30;8.93;;;3.30;99.90;;;;;;5049005;28;20292;-70
2021/11/28 03:01:32;;;;;;;10.70;8.77;;;3.30;99.90;;;;;;5047982;28;20267;-70
2021/11/28 03:03:58;;;;;;;10.33;9.20;;;3.20;99.90;;;;;;5048586;28;20254;-70
2021/11/28 03:06:25;;;;;;;9.20;8.30;;;3.20;99.90;;;;;;5048647;28;20738;-70
2021/11/28 03:08:52;;;;;;;10.03;8.50;;;3.10;99.90;;;;;;5048855;28;20247;-70
2021/11/28 03:11:19;;;;;;;10.33;8.73;;;3.10;99.90;;;;;;5048732;28;20267;-70
2021/11/28 03:13:50;;;;;;;9.93;8.93;;;3.10;99.90;;;;;;5048499;28;20727;-70
2021/11/28 03:16:20;;;;;;;9.80;8.70;;;3.10;99.90;;;;;;5048869;28;20285;-70
2021/11/28 03:18:48;;;;;;;9.60;8.57;;;3.00;99.90;;;;;;5048664;28;20204;-70
2021/11/28 03:21:17;;;;;;;10.03;8.87;;;3.00;99.90;;;;;;5048112;28;20243;-70
2021/11/28 03:23:46;;;;;;;10.80;9.10;;;3.00;99.90;;;;;;5048695;28;20212;-70
2021/11/28 03:26:17;;;;;;;10.03;9.13;;;3.10;99.90;;;;;;5048583;28;20205;-70
2021/11/28 03:28:49;;;;;;;9.57;8.67;;;3.20;99.90;;;;;;5048525;28;20201;-70
2021/11/28 03:31:17;;;;;;;9.17;8.27;;;3.10;99.90;;;;;;5048209;28;20771;-70
2021/11/28 03:33:44;;;;;;;8.70;7.80;;;3.20;99.90;;;;;;5048427;28;20678;-70
2021/11/28 03:36:14;;;;;;;9.23;8.10;;;3.10;99.90;;;;;;5048505;28;20266;-70
2021/11/28 03:38:44;;;;;;;9.87;8.53;;;3.20;99.90;;;;;;5048488;28;20200;-70
2021/11/28 03:41:11;;;;;;;8.60;7.77;;;3.20;99.90;;;;;;5047976;28;20257;-70
2021/11/28 03:43:39;;;;;;;8.87;8.03;;;3.20;99.90;;;;;;5048508;28;20209;-70
2021/11/28 03:46:08;;;;;;;8.93;8.03;;;3.10;99.90;;;;;;5047892;28;20746;-70
2021/11/28 03:48:35;;;;;;;9.30;8.30;;;3.10;99.90;;;;;;5048215;28;20285;-70
2021/11/28 03:51:07;;;;;;;9.10;8.13;;;3.10;99.90;;;;;;5047678;28;20669;-70
2021/11/28 03:53:34;;;;;;;8.90;8.00;;;3.00;99.90;;;;;;5048424;28;20214;-71
2021/11/28 03:56:04;;;;;;;10.07;8.07;;;3.00;99.90;;;;;;5047916;28;20616;-70
2021/11/28 03:58:31;;;;;;;10.63;8.27;;;2.90;99.90;;;;;;5048013;28;20973;-70
2021/11/28 04:00:59;;;;;;;8.13;7.33;;;2.90;99.90;;;;;;5047696;28;20314;-70
2021/11/28 04:03:28;;;;;;;8.37;7.50;;;2.90;99.90;;;;;;5047932;28;20236;-70
2021/11/28 04:05:55;;;;;;;8.97;8.07;;;3.00;99.90;;;;;;5048023;28;20642;-70
2021/11/28 04:08:22;;;;;;;8.10;7.30;;;2.90;99.90;;;;;;5047746;28;20207;-70
2021/11/28 04:10:50;;;;;;;8.50;7.60;;;2.90;99.90;;;;;;5048153;28;20289;-70
2021/11/28 04:13:18;;;;;;;8.27;7.00;;;3.00;99.90;;;;;;5047682;28;20712;-70
2021/11/28 04:15:45;;;;;;;8.07;7.23;;;3.00;99.90;;;;;;5047758;28;20294;-70
2021/11/28 04:18:12;;;;;;;8.57;7.07;;;3.00;99.90;;;;;;5048009;28;20545;-70
2021/11/28 04:20:42;;;;;;;7.80;6.97;;;2.90;99.90;;;;;;5047666;28;20261;-70
2021/11/28 04:23:09;;;;;;;8.33;7.17;;;2.80;99.90;;;;;;5048059;28;20266;-70
2021/11/28 04:25:36;;;;;;;7.60;6.77;;;2.80;99.90;;;;;;5047658;28;20294;-70
2021/11/28 04:28:04;;;;;;;8.20;7.40;;;2.70;99.90;;;;;;5048009;28;20291;-70
2021/11/28 04:30:30;;;;;;;7.83;7.13;;;2.60;99.90;;;;;;5047303;28;20231;-70
2021/11/28 04:32:58;;;;;;;8.90;7.27;;;2.50;99.90;;;;;;5047446;28;20215;-70
2021/11/28 04:35:25;;;;;;;7.70;6.80;;;2.40;99.90;;;;;;5048054;28;20632;-70
2021/11/28 04:37:53;;;;;;;7.70;6.93;;;2.40;99.90;;;;;;5047580;28;20204;-70
2021/11/28 04:40:20;;;;;;;7.93;7.13;;;2.30;99.90;;;;;;5047787;28;20266;-70
2021/11/28 04:42:47;;;;;;;8.20;7.37;;;2.30;99.90;;;;;;5048055;28;20236;-70
2021/11/28 04:45:14;;;;;;;7.70;6.87;;;2.20;99.90;;;;;;5047445;28;20235;-70
2021/11/28 04:47:41;;;;;;;7.87;7.07;;;2.20;99.90;;;;;;5047750;28;20224;-70
2021/11/28 04:50:11;;;;;;;8.87;7.10;;;2.20;99.90;;;;;;5047260;28;20316;-70
2021/11/28 04:52:38;;;;;;;8.13;7.37;;;2.10;99.90;;;;;;5047760;28;20207;-70
2021/11/28 04:55:10;;;;;;;8.73;7.13;;;2.10;99.90;;;;;;5047336;28;20215;-70
2021/11/28 04:57:37;;;;;;;7.97;7.10;;;2.00;99.90;;;;;;5047472;28;20647;-70
2021/11/28 05:00:07;;;;;;;7.70;6.90;;;2.00;99.90;;;;;;5047013;28;20240;-70
2021/11/28 05:02:34;;;;;;;7.77;6.90;;;2.00;99.90;;;;;;5052269;28;20235;-70
2021/11/28 05:05:01;;;;;;;8.63;7.03;;;2.00;99.90;;;;;;5062893;28;20659;-70
2021/11/28 05:07:28;;;;;;;7.87;7.07;;;2.10;99.90;;;;;;5067317;28;20650;-70
2021/11/28 05:09:55;;;;;;;8.10;7.30;;;2.20;99.90;;;;;;5067015;28;20255;-70
2021/11/28 05:12:23;;;;;;;8.07;7.27;;;2.10;99.90;;;;;;5067113;28;20784;-71
2021/11/28 05:14:51;;;;;;;8.90;7.13;;;2.10;99.90;;;;;;5067363;28;20727;-71
2021/11/28 05:17:19;;;;;;;9.17;7.37;;;2.10;99.90;;;;;;5067373;28;20204;-70
2021/11/28 05:19:46;;;;;;;8.07;7.27;;;2.10;99.90;;;;;;5067150;28;20196;-73
2021/11/28 05:22:13;;;;;;;7.67;6.93;;;2.10;99.90;;;;;;5067181;28;20250;-70
2021/11/28 05:24:40;;;;;;;9.03;7.10;;;2.20;99.90;;;;;;5064309;28;20215;-72
2021/11/28 05:27:07;;;;;;;8.33;7.53;;;2.30;99.90;;;;;;5056398;28;20236;-72
2021/11/28 05:29:35;;;;;;;8.47;7.57;;;2.30;99.90;;;;;;5050161;28;20212;-73
2021/11/28 05:32:03;;;;;;;8.17;7.37;;;2.40;99.90;;;;;;5058370;28;20327;-73
2021/11/28 05:34:31;;;;;;;8.43;7.33;;;2.40;99.90;;;;;;5070282;28;20212;-73
2021/11/28 05:36:58;;;;;;;8.00;7.20;;;2.40;99.90;;;;;;5070395;28;20230;-73
2021/11/28 05:39:25;;;;;;;8.10;7.30;;;2.40;99.90;;;;;;5067415;28;20215;-73
2021/11/28 05:41:52;;;;;;;7.80;7.10;;;2.40;99.90;;;;;;5049967;28;20243;-73
2021/11/28 05:44:19;;;;;;;8.27;7.37;;;2.50;99.90;;;;;;5051953;28;20212;-73
2021/11/28 05:46:47;;;;;;;8.80;7.77;;;2.50;99.90;;;;;;5070217;28;20227;-73
2021/11/28 05:49:14;;;;;;;8.87;7.93;;;2.50;99.90;;;;;;5070609;28;20203;-73
2021/11/28 05:51:41;;;;;;;8.10;7.30;;;2.50;99.90;;;;;;5070203;28;20350;-73
2021/11/28 05:54:08;;;;;;;8.93;8.03;;;2.50;99.90;;;;;;5070190;28;20211;-73
2021/11/28 05:56:35;;;;;;;9.70;7.33;;;2.50;99.90;;;;;;5070232;28;20242;-73
2021/11/28 05:59:02;;;;;;;9.10;7.50;;;2.50;99.90;;;;;;5070132;28;20662;-73
2021/11/28 06:01:29;;;;;;;8.63;7.67;;;2.50;99.90;;;;;;5070194;28;20322;-73
2021/11/28 06:03:58;;;;;;;8.63;7.77;;;2.40;99.90;;;;;;5070529;28;20294;-73
2021/11/28 06:06:25;;;;;;;7.77;7.00;;;2.50;99.90;;;;;;5070240;28;20285;-73
2021/11/28 06:08:52;;;;;;;8.80;7.67;;;2.50;99.90;;;;;;5070191;28;20273;-72
2021/11/28 06:11:19;;;;;;;11.30;8.53;;;2.30;99.90;;;;;;5069730;28;20242;-72
2021/11/28 06:13:46;;;;;;;7.37;6.67;;;2.30;99.90;;;;;;5069887;28;20250;-72
2021/11/28 06:16:13;;;;;;;8.70;7.80;;;2.40;99.90;;;;;;5069636;28;20294;-73
2021/11/28 06:18:43;;;;;;;8.33;7.53;;;2.40;99.90;;;;;;5069952;28;20210;-73
2021/11/28 06:21:11;;;;;;;8.77;7.63;;;2.40;99.90;;;;;;5069678;28;20254;-73
2021/11/28 06:23:38;;;;;;;9.43;8.10;;;2.40;99.90;;;;;;5069692;28;20709;-73
2021/11/28 06:26:08;;;;;;;8.40;7.60;;;2.40;99.90;;;;;;5069519;28;20246;-73
2021/11/28 06:28:35;;;;;;;8.43;7.63;;;2.40;99.90;;;;;;5069842;28;20290;-72
2021/11/28 06:31:05;;;;;;;8.47;7.67;;;2.40;99.90;;;;;;5069320;28;20235;-73
2021/11/28 06:33:32;;;;;;;8.00;7.30;;;2.30;99.90;;;;;;5069735;28;20220;-73
2021/11/28 06:35:59;;;;;;;8.70;7.67;;;2.30;99.90;;;;;;5069505;28;20631;-73
2021/11/28 06:38:28;;;;;;;8.50;7.70;;;2.30;99.90;;;;;;5069760;28;20646;-72
2021/11/28 06:40:55;;;;;;;10.17;7.87;;;2.30;99.90;;;;;;5069696;28;20686;-74
2021/11/28 06:43:22;;;;;;;11.43;8.33;;;2.20;99.90;;;;;;5069308;28;20856;-74
2021/11/28 06:45:50;;;;;;;8.03;7.27;;;2.20;99.90;;;;;;5069506;28;20203;-74
2021/11/28 06:48:17;;;;;;;8.30;7.47;;;2.20;99.90;;;;;;5069557;28;20218;-74
2021/11/28 06:50:44;;;;;;;8.27;7.47;;;2.20;99.90;;;;;;5069521;28;20314;-72
2021/11/28 06:53:11;;;;;;;10.27;8.30;;;2.20;99.90;;;;;;5069310;28;20227;-73
2021/11/28 06:55:39;;;;;;;10.77;9.57;;;2.10;99.90;;;;;;5069010;28;20263;-72
2021/11/28 06:58:06;;;;;;;10.03;8.40;;;2.10;99.90;;;;;;5068958;28;20298;-73
2021/11/28 07:00:33;;;;;;;8.30;7.40;;;2.10;99.90;;;;;;5069089;28;20263;-73
2021/11/28 07:03:00;;;;;;;8.40;7.00;;;2.10;99.90;;;;;;5069328;28;20235;-72
2021/11/28 07:05:27;;;;;;;7.97;7.17;;;2.10;99.90;;;;;;5068919;28;20290;-73
2021/11/28 07:07:53;;;;;;;8.37;7.57;;;2.10;99.90;;;;;;5069136;28;20254;-72
2021/11/28 07:10:20;;;;;;;8.37;7.57;;;2.10;99.90;;;;;;5068633;28;20212;-72
2021/11/28 07:12:49;;;;;;;7.47;6.77;;;2.10;99.90;;;;;;5068864;28;20274;-72
2021/11/28 07:15:16;;;;;;;8.17;7.43;;;2.10;99.90;;;;;;5068944;28;20293;-72
2021/11/28 07:17:43;;;;;;;8.07;7.27;;;2.10;99.90;;;;;;5068574;28;20200;-72
2021/11/28 07:20:10;;;;;;;7.77;6.97;;;2.00;99.90;;;;;;5068649;28;20286;-72
2021/11/28 07:22:38;;;;;;;8.37;7.00;;;1.90;99.90;;;;;;5068552;28;20298;-71
2021/11/28 07:25:06;;;;;;;8.03;7.23;;;1.90;99.90;;;;;;5068692;28;20223;-71
2021/11/28 07:27:33;;;;;;;8.83;7.57;;;1.70;99.90;;;;;;5068527;28;20234;-72
2021/11/28 07:30:03;;;;;;;7.97;7.20;;;1.60;99.90;;;;;;5068487;28;20269;-72
2021/11/28 07:32:29;;;;;;;8.67;7.77;;;1.70;99.90;;;;;;5068087;28;20693;-72
2021/11/28 07:34:56;;;;;;;10.53;7.60;;;1.70;99.90;;;;;;5068258;28;20208;-72
2021/11/28 07:37:23;;;;;;;10.17;7.60;;;1.80;99.90;;;;;;5068611;28;20235;-72
2021/11/28 07:39:50;;;;;;;8.27;7.47;;;1.90;99.90;;;;;;5068420;28;20242;-73
2021/11/28 07:42:17;;;;;;;8.60;7.67;;;1.90;99.90;;;;;;5067979;28;20207;-72
2021/11/28 07:44:44;;;;;;;8.47;7.57;;;2.00;99.90;;;;;;5068435;28;20208;-72
2021/11/28 07:47:13;;;;;;;8.03;7.23;;;2.00;99.90;;;;;;5067481;28;20654;-72
2021/11/28 07:49:40;;;;;;;8.13;6.90;;;2.10;99.90;;;;;;5068224;28;20230;-72
2021/11/28 07:52:07;;;;;;;7.60;6.90;;;2.10;99.90;;;;;;5067964;28;20238;-72
2021/11/28 07:54:35;;;;;;;8.73;6.87;;;2.10;99.90;;;;;;5068204;28;20211;-72
2021/11/28 07:57:02;;;;;;;7.73;6.93;;;2.10;99.90;;;;;;5068396;28;20258;-72
2021/11/28 07:59:30;;;;;;;9.00;6.63;;;2.20;99.90;;;;;;5067953;28;20222;-72
2021/11/28 08:01:57;;;;;;;7.27;6.60;;;2.30;99.90;;;;;;5068267;28;20192;-72
2021/11/28 08:04:25;;;;;;;7.93;7.20;;;2.40;99.90;;;;;;5068338;28;20218;-72
2021/11/28 08:06:52;;;;;;;7.63;6.60;;;2.60;99.90;;;;;;5067869;28;20286;-72
2021/11/28 08:09:19;;;;;;;8.27;6.80;;;2.70;99.90;;;;;;5068176;28;20231;-72
2021/11/28 08:11:46;;;;;;;7.07;6.47;;;2.70;99.90;;;;;;5067954;28;20905;-72
2021/11/28 08:14:13;;;;;;;7.43;6.73;;;2.80;99.90;;;;;;5068223;28;20233;-72
2021/11/28 08:16:40;;;;;;;7.20;6.60;;;2.80;99.90;;;;;;5068094;28;20207;-72
2021/11/28 08:19:07;;;;;;;6.70;6.10;;;2.90;99.90;;;;;;5068009;28;20614;-72
2021/11/28 08:21:36;;;;;;;7.27;6.00;;;3.00;99.90;;;;;;5068143;28;20262;-71
2021/11/28 08:24:05;;;;;;;8.00;6.43;;;3.10;99.90;;;;;;5067928;28;20249;-72
2021/11/28 08:26:35;;;;;;;6.77;6.13;;;3.20;99.90;;;;;;5068090;28;20211;-71
2021/11/28 08:29:03;;;;;;;6.90;6.30;;;3.20;99.90;;;;;;5068105;28;20314;-72
2021/11/28 08:31:30;;;;;;;7.57;6.87;;;3.30;99.90;;;;;;5068127;28;20225;-72
2021/11/28 08:33:57;;;;;;;7.23;6.57;;;3.40;99.90;;;;;;5068074;28;20203;-71
2021/11/28 08:36:24;;;;;;;7.60;6.80;;;3.40;99.90;;;;;;5067865;28;20203;-72
2021/11/28 08:38:54;;;;;;;7.47;6.70;;;3.30;99.90;;;;;;5057618;28;20270;-71
2021/11/28 08:41:22;;;;;;;6.90;6.13;;;3.40;99.90;;;;;;5047753;28;20315;-71
2021/11/28 08:43:52;;;;;;;6.97;6.37;;;3.40;99.90;;;;;;5047804;28;20207;-72
2021/11/28 08:46:20;;;;;;;7.00;6.30;;;3.50;99.90;;;;;;5047537;28;20232;-72
2021/11/28 08:48:52;;;;;;;6.60;6.00;;;3.50;99.90;;;;;;5047641;28;20299;-72
2021/11/28 08:51:19;;;;;;;7.53;6.70;;;3.60;99.90;;;;;;5047384;28;20227;-72
2021/11/28 08:53:46;;;;;;;8.43;6.20;;;3.60;99.90;;;;;;5047701;28;20231;-73
2021/11/28 08:56:14;;;;;;;7.53;6.23;;;3.70;99.90;;;;;;5047738;28;20289;-72
2021/11/28 08:58:41;;;;;;;7.20;6.53;;;3.70;99.90;;;;;;5047643;28;20290;-73
2021/11/28 09:01:08;;;;;;;6.70;6.10;;;3.80;99.90;;;;;;5050353;28;20309;-72
2021/11/28 09:03:35;;;;;;;7.10;6.43;;;3.90;99.90;;;;;;5051621;28;20208;-73
2021/11/28 09:06:05;;;;;;;7.17;6.50;;;4.00;99.90;;;;;;5050942;28;20248;-72
2021/11/28 09:08:32;;;;;;;8.67;6.03;;;4.00;99.90;;;;;;5051218;28;20236;-72
2021/11/28 09:10:59;;;;;;;7.77;6.97;;;4.00;99.90;;;;;;5050755;28;21093;-72
2021/11/28 09:13:27;;;;;;;10.40;9.10;;;4.00;99.90;;;;;;5051150;28;20325;-73
2021/11/28 09:15:54;;;;;;;18.53;13.00;;;4.10;99.90;;;;;;5051384;28;20204;-72
2021/11/28 09:18:24;;;;;;;8.27;7.40;;;4.10;99.90;;;;;;5051107;28;20211;-73
2021/11/28 09:20:57;;;;;;;7.40;6.60;;;4.10;99.90;;;;;;5051148;28;20295;-73
2021/11/28 09:26:09;;;;;;;11.13;8.70;;;4.10;99.90;;;;;;5050839;28;20206;-73
2021/11/28 09:28:39;;;;;;;10.17;8.43;;;4.20;99.90;;;;;;5050786;28;20239;-73
2021/11/28 09:31:10;;;;;;;17.30;13.10;;;4.30;99.90;;;;;;5050946;28;20273;-72
2021/11/28 09:33:38;;;;;;;7.37;6.67;;;4.20;99.90;;;;;;5050883;28;20216;-72
2021/11/28 09:36:09;;;;;;;9.40;7.30;;;4.30;99.90;;;;;;5050531;28;20749;-72
2021/11/28 09:38:36;;;;;;;8.23;6.77;;;4.40;99.90;;;;;;5050732;28;20299;-73
2021/11/28 09:41:08;;;;;;;7.27;6.27;;;4.50;99.90;;;;;;5050451;28;20700;-73
2021/11/28 09:43:44;;;;;;;7.27;6.67;;;4.60;99.90;;;;;;5050583;28;20203;-72
2021/11/28 09:46:13;;;;;;;6.40;5.80;;;4.60;99.90;;;;;;5050584;28;20311;-72
2021/11/28 09:48:40;;;;;;;6.60;5.90;;;4.70;99.90;;;;;;5050167;28;20742;-72
2021/11/28 09:51:09;;;;;;;6.73;6.03;;;4.80;99.90;;;;;;5050672;28;20251;-73
2021/11/28 09:53:38;;;;;;;6.13;5.63;;;4.90;99.90;;;;;;5050232;28;20772;-74
2021/11/28 09:56:08;;;;;;;8.97;8.07;;;5.00;99.90;;;;;;5050190;28;20201;-73
2021/11/28 09:58:36;;;;;;;8.23;7.50;;;5.10;99.90;;;;;;5051104;28;20666;-72
2021/11/28 10:01:06;;;;;;;6.80;6.20;;;5.10;99.90;;;;;;5066580;28;20271;-72
2021/11/28 10:03:33;;;;;;;6.73;6.20;;;5.30;99.90;;;;;;5061820;28;20307;-73
2021/11/28 10:06:00;;;;;;;6.70;6.00;;;5.40;99.90;;;;;;5049637;28;20212;-74
2021/11/28 10:08:27;;;;;;;7.60;6.90;;;5.40;99.90;;;;;;5053842;28;20232;-71
2021/11/28 10:11:24;;;;;;;6.57;5.97;;;5.50;99.90;;;;;;5055315;28;20326;-69
2021/11/28 10:13:55;;;;;;;7.93;5.73;;;5.50;99.90;;;;;;5069754;28;20265;-70
2021/11/28 10:16:23;;;;;;;6.23;5.63;;;5.50;99.90;;;;;;5054582;28;20302;-70
2021/11/28 10:18:50;;;;;;;6.00;5.50;;;5.50;99.90;;;;;;5049940;28;20215;-70
2021/11/28 10:21:17;;;;;;;6.37;5.77;;;5.50;99.90;;;;;;5049810;28;20212;-70
2021/11/28 10:24:09;;;;;;;5.60;5.10;;;5.50;99.90;;;;;;5049163;28;20251;-69
2021/11/28 10:26:38;;;;;;;6.67;5.80;;;5.60;99.90;;;;;;5048726;28;20191;-69
2021/11/28 10:29:08;;;;;;;9.00;5.60;;;5.60;99.90;;;;;;5054235;28;20872;-70
2021/11/28 10:31:48;;;;;;;6.50;5.90;;;5.70;99.90;;;;;;5063909;28;20582;-70
2021/11/28 10:34:19;;;;;;;5.97;5.47;;;5.80;99.90;;;;;;5047064;28;20715;-69
2021/11/28 10:36:47;;;;;;;6.83;5.40;;;5.80;99.90;;;;;;5055257;28;20199;-69
2021/11/28 10:39:16;;;;;;;6.40;5.80;;;5.70;99.90;;;;;;5067474;28;20214;-72
2021/11/28 10:41:49;;;;;;;6.70;6.00;;;5.80;99.90;;;;;;5067633;28;20725;-72
2021/11/28 10:44:17;;;;;;;5.57;5.07;;;5.90;99.90;;;;;;5067379;28;20238;-71
2021/11/28 10:46:46;;;;;;;6.60;5.47;;;6.00;99.90;;;;;;5067093;28;20322;-72
2021/11/28 10:49:15;;;;;;;5.63;4.87;;;6.10;99.90;;;;;;5066470;28;20203;-72
2021/11/28 10:51:45;;;;;;;6.83;5.10;;;6.20;99.90;;;;;;5066839;28;20207;-72
2021/11/28 10:54:23;;;;;;;7.67;4.87;;;6.00;99.90;;;;;;5067289;28;20233;-71
2021/11/28 10:57:00;;;;;;;6.20;4.90;;;5.90;99.90;;;;;;5067638;28;20292;-78
2021/11/28 10:59:27;;;;;;;5.77;5.00;;;6.00;99.90;;;;;;5067718;28;20206;-78
2021/11/28 11:01:59;;;;;;;7.17;5.93;;;6.10;99.90;;;;;;5067112;28;20192;-70
2021/11/28 11:04:29;;;;;;;7.50;5.10;;;6.20;99.90;;;;;;5066010;28;20619;-70
2021/11/28 11:07:08;;;;;;;7.07;5.37;;;6.30;99.90;;;;;;5066278;28;20230;-70
2021/11/28 11:09:41;;;;;;;5.97;4.80;;;6.30;99.90;;;;;;5066396;28;20283;-69
2021/11/28 11:12:28;;;;;;;8.07;4.77;;;6.30;99.90;;;;;;5066012;28;20231;-70
2021/11/28 11:14:57;;;;;;;6.23;4.53;;;6.20;99.90;;;;;;5046164;28;20663;-70
2021/11/28 11:17:28;;;;;;;7.60;5.70;;;6.20;99.90;;;;;;5046217;28;20215;-69
2021/11/28 11:19:56;;;;;;;8.27;4.87;;;6.20;99.90;;;;;;5049516;28;20218;-69
2021/11/28 11:22:25;;;;;;;5.83;4.50;;;6.20;99.90;;;;;;5052427;28;20266;-70
2021/11/28 11:24:56;;;;;;;6.67;4.53;;;6.40;99.90;;;;;;5045084;28;20208;-70
2021/11/28 11:27:25;;;;;;;6.73;4.50;;;6.60;99.90;;;;;;5055649;28;20211;-70
2021/11/28 11:29:54;;;;;;;8.43;6.27;;;6.60;99.90;;;;;;5064555;28;20231;-71
2021/11/28 11:32:24;;;;;;;5.70;4.80;;;6.50;99.90;;;;;;5064079;28;20328;-71
2021/11/28 11:34:59;;;;;;;5.03;4.60;;;6.50;99.90;;;;;;5063930;28;20657;-71
2021/11/28 11:37:29;;;;;;;5.53;4.43;;;6.70;99.90;;;;;;5062871;28;20213;-71
2021/11/28 11:39:58;;;;;;;6.53;4.77;;;7.00;99.90;;;;;;5055939;28;20502;-71
2021/11/28 11:42:28;;;;;;;6.40;4.30;;;7.10;99.90;;;;;;5046117;28;20353;-71
2021/11/28 11:44:56;;;;;;;5.37;4.27;;;7.00;99.90;;;;;;5046108;28;20347;-71
2021/11/28 11:47:24;;;;;;;4.90;4.40;;;7.00;99.90;;;;;;5046298;28;20212;-71
2021/11/28 11:49:52;;;;;;;5.47;4.50;;;7.10;99.90;;;;;;5046405;28;20288;-71
2021/11/28 11:52:22;;;;;;;5.17;3.97;;;7.20;99.90;;;;;;5045888;28;21059;-71
2021/11/28 11:54:51;;;;;;;6.57;4.90;;;7.30;99.90;;;;;;5045487;28;20736;-71
2021/11/28 11:57:25;;;;;;;7.70;4.80;;;7.30;99.90;;;;;;5045336;28;20270;-71
2021/11/28 12:00:05;;;;;;;5.17;4.23;;;7.30;99.90;;;;;;5045167;28;20790;-71
2021/11/28 12:02:36;;;;;;;6.80;4.37;;;7.30;99.90;;;;;;5045787;28;20290;-71
2021/11/28 12:05:24;;;;;;;4.50;4.03;;;7.30;99.90;;;;;;5046243;28;20691;-71
2021/11/28 12:07:54;;;;;;;5.30;3.80;;;7.10;99.90;;;;;;5052809;28;20793;-71
2021/11/28 12:10:28;;;;;;;5.90;4.53;;;7.10;99.90;;;;;;5058854;28;20231;-71
2021/11/28 12:12:56;;;;;;;6.77;4.63;;;7.10;99.90;;;;;;5054607;28;20769;-71
2021/11/28 12:15:24;;;;;;;8.70;6.47;;;7.10;99.90;;;;;;5064708;28;20728;-71
2021/11/28 12:17:53;;;;;;;5.67;5.13;;;7.20;99.90;;;;;;5061215;28;20212;-71
2021/11/28 12:20:53;;;;;;;5.63;4.40;;;7.20;99.90;;;;;;5057509;28;20211;-71
2021/11/28 12:23:53;;;;;;;5.67;4.90;;;7.30;99.90;;;;;;5065282;28;20205;-71
2021/11/28 12:26:48;;;;;;;4.87;4.40;;;7.30;99.90;;;;;;5065376;28;20204;-70
2021/11/28 12:29:39;;;;;;;5.03;4.57;;;7.50;99.90;;;;;;5051029;28;20285;-71
2021/11/28 12:32:26;;;;;;;5.33;4.57;;;7.60;99.90;;;;;;5057759;28;20207;-71
2021/11/28 12:35:07;;;;;;;7.10;4.40;;;7.60;99.90;;;;;;5068692;28;20210;-70
2021/11/28 12:37:47;;;;;;;7.40;4.47;;;7.70;99.90;;;;;;5069519;28;20199;-70
2021/11/28 12:40:28;;;;;;;8.87;4.77;;;7.80;99.90;;;;;;5069123;28;20195;-71
2021/11/28 12:42:55;;;;;;;6.20;4.23;;;7.80;99.90;;;;;;5069343;28;20199;-71
2021/11/28 12:45:35;;;;;;;7.23;4.03;;;7.90;99.90;;;;;;5069211;28;20263;-70
2021/11/28 12:48:05;;;;;;;8.23;4.10;;;7.90;99.90;;;;;;5069781;28;20642;-70
2021/11/28 12:50:54;;;;;;;4.70;4.23;;;8.00;99.90;;;;;;5069329;28;20565;-71
2021/11/28 12:53:33;;;;;;;11.50;7.90;;;8.00;99.90;;;;;;5068731;28;20308;-70
2021/11/28 12:56:19;;;;;;;10.87;5.43;;;8.00;99.90;;;;;;5066880;28;20214;-70
2021/11/28 12:59:15;;;;;;;9.03;5.80;;;7.90;99.90;;;;;;5068204;28;20199;-72
2021/11/28 13:01:54;;;;;;;6.63;4.13;;;7.80;99.90;;;;;;5063435;28;20200;-71
2021/11/28 13:04:50;;;;;;;4.90;4.27;;;7.60;99.90;;;;;;5059588;28;20742;-71
2021/11/28 13:07:33;;;;;;;6.37;4.30;;;7.20;99.90;;;;;;5061310;28;20234;-71
2021/11/28 13:10:33;;;;;;;8.10;3.90;;;7.20;99.90;;;;;;5063726;28;20216;-71
2021/11/28 13:13:04;;;;;;;4.17;3.40;;;7.00;99.90;;;;;;5060729;28;20234;-71